Flight Track Log - Related Links

Times and Time Zones

All times are in EDT time to prevent confusion due to time zone crossing. See the FLG3350 flight status page for this flight to view local times or setup timezone preferences in your user account.

Time Position Orientation Groundspeed Altitude Reporting Facility
EDT Latitude Longitude Course Direction KTS MPH feet Rate Location/Type
Fri 07:14:03 PM 44.8833 -93.2667 274° West 192 221 2,700  Level Minneapolis TRACON
Fri 07:14:42 PM 44.8861 -93.3247 241° Southwest 210 242 4,400 2,354 Climbing FAA TRACON SMA TRACON (SMA)
Fri 07:15:22 PM 44.8642 -93.3797 203° Southwest 261 300 5,800 2,475 Climbing FAA TRACON SMA TRACON (SMA)
Fri 07:16:02 PM 44.8181 -93.4069 206° Southwest 263 303 7,700 2,519 Climbing FAA TRACON SMA TRACON (SMA)
Fri 07:16:43 PM 44.7697 -93.4394 204° Southwest 283 326 9,200 2,444 Climbing FAA TRACON SMA TRACON (SMA)
Fri 07:17:23 PM 44.7247 -93.4672 205° Southwest 286 329 11,000 1,500 Climbing FAA TRACON SMA TRACON (SMA)
Fri 07:18:03 PM 44.6700 -93.5028 204° Southwest 320 368 11,200 675 Climbing FAA TRACON SMA TRACON (SMA)
Fri 07:18:43 PM 44.6075 -93.5417 204° Southwest 360 414 11,900 1,747 Climbing FAA TRACON SMA TRACON (SMA)
Fri 07:19:22 PM 44.5531 -93.5764 204° Southwest 351 404 13,500 2,658 Climbing FAA TRACON SMA TRACON (SMA)
Fri 07:20:02 PM 44.4958 -93.6128 204° Southwest 323 372 15,400 2,325 Climbing FAA TRACON SMA TRACON (SMA)
Fri 07:20:42 PM 44.4406 -93.6478 206° Southwest 314 361 16,600 1,500 Climbing FAA TRACON SMA TRACON (SMA)
Fri 07:21:22 PM 44.3911 -93.6814 205° Southwest 321 369 17,400 1,800 Climbing FAA TRACON SMA TRACON (SMA)
Fri 07:22:02 PM 44.3386 -93.7150 192° South 297 342 19,000 1,704 Climbing FAA TRACON SMA TRACON (SMA)
Fri 07:22:43 PM 44.2825 -93.7319 180° South 305 351 19,700 963 Climbing FAA TRACON SMA TRACON (SMA)
Fri 07:23:23 PM 44.2275 -93.7319 178° South 323 372 20,300 600 Climbing FAA TRACON SMA TRACON (SMA)
Fri 07:24:03 PM 44.1603 -93.7289 178° South 345 397 20,500 360 Climbing FAA TRACON SMA TRACON (SMA)
Fri 07:25:03 PM 44.0583 -93.7250 181° South 373 429 20,900 606 Climbing FAA TRACON SMA TRACON (SMA)
Fri 07:25:42 PM 43.9856 -93.7269 178° South 380 437 21,500 604 Climbing FAA TRACON SMA TRACON (SMA)
Fri 07:27:32 PM 43.7997 -93.7178 178° South 387 445 22,400 533 Climbing Minneapolis Center
Fri 07:28:31 PM 43.6894 -93.7114 180° South 387 445 23,000 300 Climbing Minneapolis Center
Fri 07:29:32 PM 43.5875 -93.7111 182° South 382 440 23,000  Level Minneapolis Center
Fri 07:30:32 PM 43.4667 -93.7161 178° South 389 448 23,000  Level Minneapolis Center
Fri 07:31:32 PM 43.3625 -93.7100 180° South 384 442 23,000  Level Minneapolis Center
Fri 07:32:31 PM 43.2542 -93.7094 180° South 384 442 23,000 -252 Level Minneapolis Center
Fri 07:33:31 PM 43.1500 -93.7089 178° South 397 457 22,500 -645 Descending Minneapolis Center
Fri 07:34:32 PM 43.0333 -93.7028 179° South 405 466 21,700 -800 Descending Minneapolis Center
Fri 07:35:31 PM 42.9169 -93.6994 179° South 422 486 20,900 -706 Descending Minneapolis Center
Fri 07:36:31 PM 42.8067 -93.6961 179° South 417 480 20,300 -1,000 Descending Minneapolis Center
Fri 07:37:31 PM 42.6919 -93.6928 179° South 417 480 18,900 -1,400 Descending Minneapolis Center
Fri 07:38:31 PM 42.5775 -93.6894 175° South 417 480 17,500 -1,831 Descending Minneapolis Center
Fri 07:39:29 PM 42.4692 -93.6778 180° South 399 459 15,300 -2,234 Descending Minneapolis Center
Fri 07:40:05 PM 42.4047 -93.6775 178° South 375 432 14,000 -1,978 Descending Minneapolis Center
Fri 07:41:00 PM 42.3194 -93.6744 184° South 356 410 12,300 -1,724 Descending Minneapolis Center
Fri 07:41:32 PM 42.2653 -93.6797 178° South 373 429 11,500 -791 Descending Minneapolis Center
Fri 07:42:31 PM 42.1819 -93.6767 177° South 335 386 11,100 -539 Descending Minneapolis Center
Fri 07:43:01 PM 42.1383 -93.6736 196° South 313 360 10,700 -400 Descending Minneapolis Center
Fri 07:43:31 PM 42.0947 -93.6903 210° Southwest 319 367 10,700 -98 Level Minneapolis Center
Fri 07:44:02 PM 42.0592 -93.7181 206° Southwest 314 361 10,600 -295 Descending Minneapolis Center
Fri 07:44:32 PM 42.0217 -93.7431 212° Southwest 297 342 10,400 -933 Descending Minneapolis Center
Fri 07:45:32 PM 41.9547 -93.7983 206° Southwest 284 327 9,200 -1,500 Descending Minneapolis Center
Fri 07:46:32 PM 41.8861 -93.8425 215° Southwest 284 327 7,400 -1,950 Descending Minneapolis Center
Fri 07:47:32 PM 41.8339 -93.8922 206° Southwest 260 299 5,300 -1,050 Descending Minneapolis Center
Fri 07:48:32 PM 41.7711 -93.9336 211° Southwest 260 299 5,300 8,850 Level Minneapolis Center
Fri 07:49:32 PM 41.7086 -93.9831 209° Southwest 260 299 23,000 8,850 Climbing Minneapolis Center
Fri 07:50:32 PM 41.6458 -94.0297 130° Southeast 260 299 23,000 -8,255 Level Minneapolis Center
Fri 07:52:01 PM 41.5611 -93.8931 310° West 239 275 2,500  Descending Minneapolis Center
Fri 07:52:32 PM 41.6458 -94.0297 132° Southeast 260 299 23,000  Climbing Minneapolis Center
Fri 07:53:02 PM 41.5156 -93.8347 312° West 242 278 2,500  Descending Minneapolis Center
Fri 07:53:32 PM 41.6458 -94.0297 129° Southeast 260 299 23,000 -300 Climbing Minneapolis Center
Fri 07:54:02 PM 41.4889 -93.7708 64° Northeast 198 228 2,200 -13,175 Descending Minneapolis Center
Fri 07:55:09 PM 41.5097 -93.7128 64° Northeast 149 171 1,700 -448 Descending Minneapolis Center

Login

Don't have an account? Register now (free) for customized features, flight alerts, and more!